This is the latest recevied weather packets stored in our database for station/object CT2IRJ-11. If no packets are shown the sender has not sent any weather packets the latest 10 day(s).
| Time | Temp. | Humidity | Pressure | Rain* | Wind** | Luminosity | Snow |
|---|---|---|---|---|---|---|---|
| 1778003910 | 18.89° C | 59% | 1015.6 hPa | 0 mm | - | 41 W/m² | - |
| 1778003610 | 18.89° C | 59% | 1015.6 hPa | 0 mm | - | 82 W/m² | - |
| 1778003310 | 19.44° C | 58% | 1015.6 hPa | 0 mm | - | 55 W/m² | - |
| 1778003010 | 18.89° C | 58% | 1015.6 hPa | 0 mm | - | 80 W/m² | - |
| 1778002710 | 18.89° C | 59% | 1015.6 hPa | 0 mm | - | 93 W/m² | - |
| 1778002410 | 19.44° C | 57% | 1015.6 hPa | 0 mm | - | 87 W/m² | - |
| 1778002110 | 18.89° C | 57% | 1015.6 hPa | 0 mm | - | 77 W/m² | - |
| 1778001809 | 18.89° C | 57% | 1015.6 hPa | 0 mm | - | 89 W/m² | - |
| 1778001510 | 20.56° C | 55% | 1015.6 hPa | 0 mm | - | 86 W/m² | - |
| 1778001209 | 20.56° C | 53% | 1015.9 hPa | 0 mm | - | 251 W/m² | - |
| 1778000910 | 21.11° C | 53% | 1015.6 hPa | 0 mm | - | 249 W/m² | - |
| 1778000610 | 20.56° C | 55% | 1015.6 hPa | 0 mm | - | 278 W/m² | - |
| 1778000310 | 20° C | 55% | 1015.6 hPa | 0 mm | - | 293 W/m² | - |
| 1778000009 | 21.11° C | 55% | 1015.6 hPa | 0 mm | - | 134 W/m² | - |
| 1777999712 | 21.11° C | 55% | 1015.6 hPa | 0 mm | - | 200 W/m² | - |
| 1777999410 | 21.11° C | 53% | 1015.6 hPa | 0 mm | - | 375 W/m² | - |
| 1777999110 | 20.56° C | 55% | 1015.6 hPa | 0 mm | - | 340 W/m² | - |
| 1777998809 | 21.67° C | 51% | 1015.9 hPa | 0 mm | - | 381 W/m² | - |
| 1777998510 | 22.22° C | 51% | 1015.6 hPa | 0 mm | - | 366 W/m² | - |
| 1777998210 | 22.78° C | 50% | 1015.6 hPa | 0 mm | - | 405 W/m² | - |
| 1777997911 | 22.78° C | 51% | 1015.2 hPa | 0 mm | - | 443 W/m² | - |
| 1777997611 | 21.67° C | 53% | 1015.2 hPa | 0 mm | - | 528 W/m² | - |
| 1777997310 | 21.67° C | 53% | 1015.2 hPa | 0 mm | - | 473 W/m² | - |
| 1777997010 | 22.22° C | 51% | 1015.6 hPa | 0 mm | - | 507 W/m² | - |
| 1777996710 | 22.22° C | 51% | 1015.2 hPa | 0 mm | - | 484 W/m² | - |
* Rain latest hour (hover to see other rain measurements)
** Current wind speed in m/s (hover to see current wind gust speed)